sensor_id;sensor_type;location;lat;lon;timestamp;P1;durP1;ratioP1;P2;durP2;ratioP2
15192;SDS011;7697;51.630;7.484;2022-07-01T00:00:16;4.50;;;4.10;;
15192;SDS011;7697;51.630;7.484;2022-07-01T00:05:18;4.65;;;4.25;;
15192;SDS011;7697;51.630;7.484;2022-07-01T00:10:22;4.80;;;4.40;;
15192;SDS011;7697;51.630;7.484;2022-07-01T00:15:23;5.68;;;5.28;;
15192;SDS011;7697;51.630;7.484;2022-07-01T00:20:25;5.82;;;5.32;;
15192;SDS011;7697;51.630;7.484;2022-07-01T00:25:29;6.68;;;6.07;;
15192;SDS011;7697;51.630;7.484;2022-07-01T00:30:31;5.53;;;5.03;;
15192;SDS011;7697;51.630;7.484;2022-07-01T00:35:32;5.60;;;5.10;;
15192;SDS011;7697;51.630;7.484;2022-07-01T00:40:36;6.15;;;5.53;;
15192;SDS011;7697;51.630;7.484;2022-07-01T00:45:42;6.10;;;5.25;;
15192;SDS011;7697;51.630;7.484;2022-07-01T00:50:46;5.35;;;4.95;;
15192;SDS011;7697;51.630;7.484;2022-07-01T00:55:49;5.07;;;4.68;;
15192;SDS011;7697;51.630;7.484;2022-07-01T01:00:51;4.47;;;4.07;;
15192;SDS011;7697;51.630;7.484;2022-07-01T01:05:53;4.30;;;3.90;;
15192;SDS011;7697;51.630;7.484;2022-07-01T01:10:58;5.40;;;5.00;;
15192;SDS011;7697;51.630;7.484;2022-07-01T01:16:00;4.30;;;3.90;;
15192;SDS011;7697;51.630;7.484;2022-07-01T01:21:04;4.53;;;4.13;;
15192;SDS011;7697;51.630;7.484;2022-07-01T01:26:14;5.63;;;5.13;;
15192;SDS011;7697;51.630;7.484;2022-07-01T01:31:17;5.25;;;4.82;;
15192;SDS011;7697;51.630;7.484;2022-07-01T01:36:20;5.32;;;4.82;;
15192;SDS011;7697;51.630;7.484;2022-07-01T01:41:22;6.28;;;5.68;;
15192;SDS011;7697;51.630;7.484;2022-07-01T01:46:23;6.43;;;5.82;;
15192;SDS011;7697;51.630;7.484;2022-07-01T01:51:27;7.90;;;7.10;;
15192;SDS011;7697;51.630;7.484;2022-07-01T01:56:28;10.10;;;9.15;;
15192;SDS011;7697;51.630;7.484;2022-07-01T02:01:30;8.77;;;7.97;;
15192;SDS011;7697;51.630;7.484;2022-07-01T02:06:34;9.60;;;8.60;;
15192;SDS011;7697;51.630;7.484;2022-07-01T02:11:35;9.30;;;8.40;;
15192;SDS011;7697;51.630;7.484;2022-07-01T02:16:37;10.15;;;9.07;;
15192;SDS011;7697;51.630;7.484;2022-07-01T02:21:40;9.05;;;8.20;;
15192;SDS011;7697;51.630;7.484;2022-07-01T02:26:42;12.68;;;11.38;;
15192;SDS011;7697;51.630;7.484;2022-07-01T02:31:44;12.23;;;11.13;;
15192;SDS011;7697;51.630;7.484;2022-07-01T02:36:47;15.55;;;12.85;;
15192;SDS011;7697;51.630;7.484;2022-07-01T02:41:48;14.48;;;13.07;;
15192;SDS011;7697;51.630;7.484;2022-07-01T02:47:08;13.70;;;12.32;;
15192;SDS011;7697;51.630;7.484;2022-07-01T02:52:11;12.50;;;11.30;;
15192;SDS011;7697;51.630;7.484;2022-07-01T02:57:12;14.13;;;12.73;;
15192;SDS011;7697;51.630;7.484;2022-07-01T03:02:14;12.07;;;10.88;;
15192;SDS011;7697;51.630;7.484;2022-07-01T03:07:17;11.32;;;10.13;;
15192;SDS011;7697;51.630;7.484;2022-07-01T03:12:19;9.75;;;8.75;;
15192;SDS011;7697;51.630;7.484;2022-07-01T03:17:29;8.68;;;7.70;;
15192;SDS011;7697;51.630;7.484;2022-07-01T03:22:33;8.60;;;7.80;;
15192;SDS011;7697;51.630;7.484;2022-07-01T03:27:34;9.82;;;8.82;;
15192;SDS011;7697;51.630;7.484;2022-07-01T03:32:37;9.77;;;8.77;;
15192;SDS011;7697;51.630;7.484;2022-07-01T03:37:40;10.95;;;9.95;;
15192;SDS011;7697;51.630;7.484;2022-07-01T03:42:41;8.65;;;7.78;;
15192;SDS011;7697;51.630;7.484;2022-07-01T03:47:46;12.68;;;8.93;;
15192;SDS011;7697;51.630;7.484;2022-07-01T03:52:50;9.07;;;8.10;;
15192;SDS011;7697;51.630;7.484;2022-07-01T03:58:14;7.72;;;6.93;;
15192;SDS011;7697;51.630;7.484;2022-07-01T04:03:15;7.55;;;6.10;;
15192;SDS011;7697;51.630;7.484;2022-07-01T04:08:19;9.13;;;8.00;;
15192;SDS011;7697;51.630;7.484;2022-07-01T04:13:20;10.38;;;8.05;;
15192;SDS011;7697;51.630;7.484;2022-07-01T04:18:22;8.43;;;7.20;;
15192;SDS011;7697;51.630;7.484;2022-07-01T04:23:25;7.25;;;6.55;;
15192;SDS011;7697;51.630;7.484;2022-07-01T04:28:27;9.00;;;8.10;;
15192;SDS011;7697;51.630;7.484;2022-07-01T04:33:29;9.88;;;8.88;;
15192;SDS011;7697;51.630;7.484;2022-07-01T04:38:32;10.02;;;8.93;;
15192;SDS011;7697;51.630;7.484;2022-07-01T04:43:34;8.38;;;7.55;;
15192;SDS011;7697;51.630;7.484;2022-07-01T04:48:35;7.72;;;6.97;;
15192;SDS011;7697;51.630;7.484;2022-07-01T04:53:38;11.18;;;8.52;;
15192;SDS011;7697;51.630;7.484;2022-07-01T04:58:40;9.43;;;7.78;;
15192;SDS011;7697;51.630;7.484;2022-07-01T05:03:42;10.73;;;8.63;;
15192;SDS011;7697;51.630;7.484;2022-07-01T05:08:45;8.85;;;7.95;;
15192;SDS011;7697;51.630;7.484;2022-07-01T05:13:47;10.05;;;7.13;;
15192;SDS011;7697;51.630;7.484;2022-07-01T05:18:48;10.57;;;7.78;;
15192;SDS011;7697;51.630;7.484;2022-07-01T05:24:09;7.70;;;7.00;;
15192;SDS011;7697;51.630;7.484;2022-07-01T05:29:11;8.48;;;7.30;;
15192;SDS011;7697;51.630;7.484;2022-07-01T05:34:13;9.05;;;8.13;;
15192;SDS011;7697;51.630;7.484;2022-07-01T05:39:16;9.02;;;7.28;;
15192;SDS011;7697;51.630;7.484;2022-07-01T05:44:18;8.02;;;7.20;;
15192;SDS011;7697;51.630;7.484;2022-07-01T05:49:21;7.30;;;6.60;;
15192;SDS011;7697;51.630;7.484;2022-07-01T05:54:24;7.32;;;6.55;;
15192;SDS011;7697;51.630;7.484;2022-07-01T05:59:26;6.72;;;6.10;;
15192;SDS011;7697;51.630;7.484;2022-07-01T06:04:28;6.18;;;5.68;;
15192;SDS011;7697;51.630;7.484;2022-07-01T06:09:31;7.30;;;6.13;;
15192;SDS011;7697;51.630;7.484;2022-07-01T06:14:32;6.40;;;5.35;;
15192;SDS011;7697;51.630;7.484;2022-07-01T06:19:34;6.70;;;6.10;;
15192;SDS011;7697;51.630;7.484;2022-07-01T06:24:39;7.82;;;7.05;;
15192;SDS011;7697;51.630;7.484;2022-07-01T06:29:41;6.75;;;6.10;;
15192;SDS011;7697;51.630;7.484;2022-07-01T06:34:43;6.72;;;5.88;;
15192;SDS011;7697;51.630;7.484;2022-07-01T06:39:46;7.50;;;5.75;;
15192;SDS011;7697;51.630;7.484;2022-07-01T06:44:48;6.35;;;5.75;;
15192;SDS011;7697;51.630;7.484;2022-07-01T06:49:50;7.50;;;5.45;;
15192;SDS011;7697;51.630;7.484;2022-07-01T06:54:53;8.35;;;6.93;;
15192;SDS011;7697;51.630;7.484;2022-07-01T06:59:55;7.22;;;6.53;;
15192;SDS011;7697;51.630;7.484;2022-07-01T07:04:56;7.53;;;6.68;;
15192;SDS011;7697;51.630;7.484;2022-07-01T07:10:00;6.47;;;5.85;;
15192;SDS011;7697;51.630;7.484;2022-07-01T07:15:02;6.00;;;5.40;;
15192;SDS011;7697;51.630;7.484;2022-07-01T07:20:04;5.60;;;5.00;;
15192;SDS011;7697;51.630;7.484;2022-07-01T07:25:09;8.13;;;6.82;;
15192;SDS011;7697;51.630;7.484;2022-07-01T07:30:11;7.57;;;5.95;;
15192;SDS011;7697;51.630;7.484;2022-07-01T07:35:13;7.20;;;6.32;;
15192;SDS011;7697;51.630;7.484;2022-07-01T07:40:16;6.50;;;5.30;;
15192;SDS011;7697;51.630;7.484;2022-07-01T07:45:19;6.82;;;5.57;;
15192;SDS011;7697;51.630;7.484;2022-07-01T07:50:21;5.32;;;4.45;;
15192;SDS011;7697;51.630;7.484;2022-07-01T07:55:25;7.70;;;4.45;;
15192;SDS011;7697;51.630;7.484;2022-07-01T08:00:28;5.47;;;4.90;;
15192;SDS011;7697;51.630;7.484;2022-07-01T08:05:29;7.55;;;4.57;;
15192;SDS011;7697;51.630;7.484;2022-07-01T08:10:33;6.65;;;5.40;;
15192;SDS011;7697;51.630;7.484;2022-07-01T08:21:31;5.85;;;4.10;;
15192;SDS011;7697;51.630;7.484;2022-07-01T08:26:35;6.78;;;5.43;;
15192;SDS011;7697;51.630;7.484;2022-07-01T08:31:39;7.93;;;4.70;;
15192;SDS011;7697;51.630;7.484;2022-07-01T08:36:41;6.88;;;5.60;;
15192;SDS011;7697;51.630;7.484;2022-07-01T08:41:44;7.05;;;4.90;;
15192;SDS011;7697;51.630;7.484;2022-07-01T08:46:46;7.32;;;5.80;;
15192;SDS011;7697;51.630;7.484;2022-07-01T08:51:48;7.40;;;5.50;;
15192;SDS011;7697;51.630;7.484;2022-07-01T08:56:51;5.80;;;5.18;;
15192;SDS011;7697;51.630;7.484;2022-07-01T09:01:56;5.25;;;4.72;;
15192;SDS011;7697;51.630;7.484;2022-07-01T09:07:01;4.97;;;4.50;;
15192;SDS011;7697;51.630;7.484;2022-07-01T09:12:06;5.30;;;4.85;;
15192;SDS011;7697;51.630;7.484;2022-07-01T09:17:08;4.07;;;3.78;;
15192;SDS011;7697;51.630;7.484;2022-07-01T09:22:19;5.25;;;4.50;;
15192;SDS011;7697;51.630;7.484;2022-07-01T09:27:23;5.50;;;5.00;;
15192;SDS011;7697;51.630;7.484;2022-07-01T09:32:27;7.50;;;4.65;;
15192;SDS011;7697;51.630;7.484;2022-07-01T09:37:29;5.10;;;4.30;;
15192;SDS011;7697;51.630;7.484;2022-07-01T09:42:37;6.97;;;4.78;;
15192;SDS011;7697;51.630;7.484;2022-07-01T09:47:47;4.78;;;4.18;;
15192;SDS011;7697;51.630;7.484;2022-07-01T09:52:49;3.25;;;2.95;;
15192;SDS011;7697;51.630;7.484;2022-07-01T09:57:52;4.15;;;3.83;;
15192;SDS011;7697;51.630;7.484;2022-07-01T10:02:54;4.03;;;3.63;;
15192;SDS011;7697;51.630;7.484;2022-07-01T10:07:59;5.07;;;3.40;;
15192;SDS011;7697;51.630;7.484;2022-07-01T10:13:17;3.65;;;2.75;;
15192;SDS011;7697;51.630;7.484;2022-07-01T10:18:25;3.10;;;2.80;;
15192;SDS011;7697;51.630;7.484;2022-07-01T10:23:28;3.28;;;2.80;;
15192;SDS011;7697;51.630;7.484;2022-07-01T10:28:43;2.83;;;2.13;;
15192;SDS011;7697;51.630;7.484;2022-07-01T10:33:46;2.55;;;2.30;;
15192;SDS011;7697;51.630;7.484;2022-07-01T10:44:24;3.90;;;2.90;;
15192;SDS011;7697;51.630;7.484;2022-07-01T10:54:58;3.75;;;2.30;;
15192;SDS011;7697;51.630;7.484;2022-07-01T11:05:33;4.07;;;2.33;;
15192;SDS011;7697;51.630;7.484;2022-07-01T11:10:36;2.78;;;1.70;;
15192;SDS011;7697;51.630;7.484;2022-07-01T11:15:39;4.40;;;1.90;;
15192;SDS011;7697;51.630;7.484;2022-07-01T11:20:41;3.08;;;2.00;;
15192;SDS011;7697;51.630;7.484;2022-07-01T11:25:43;2.72;;;1.70;;
15192;SDS011;7697;51.630;7.484;2022-07-01T11:30:47;2.53;;;1.40;;
15192;SDS011;7697;51.630;7.484;2022-07-01T11:35:48;2.38;;;1.42;;
15192;SDS011;7697;51.630;7.484;2022-07-01T11:41:10;4.57;;;1.63;;
15192;SDS011;7697;51.630;7.484;2022-07-01T11:46:21;2.90;;;1.48;;
15192;SDS011;7697;51.630;7.484;2022-07-01T11:51:24;2.25;;;1.30;;
15192;SDS011;7697;51.630;7.484;2022-07-01T11:56:28;4.30;;;1.40;;
15192;SDS011;7697;51.630;7.484;2022-07-01T12:01:32;1.23;;;1.10;;
15192;SDS011;7697;51.630;7.484;2022-07-01T12:06:36;1.95;;;1.10;;
15192;SDS011;7697;51.630;7.484;2022-07-01T12:11:43;1.77;;;1.25;;
15192;SDS011;7697;51.630;7.484;2022-07-01T12:16:47;5.20;;;1.25;;
15192;SDS011;7697;51.630;7.484;2022-07-01T12:21:53;1.60;;;0.90;;
15192;SDS011;7697;51.630;7.484;2022-07-01T12:27:02;1.95;;;1.27;;
15192;SDS011;7697;51.630;7.484;2022-07-01T12:32:06;1.80;;;1.40;;
15192;SDS011;7697;51.630;7.484;2022-07-01T12:37:09;3.38;;;1.50;;
15192;SDS011;7697;51.630;7.484;2022-07-01T12:42:23;1.45;;;1.30;;
15192;SDS011;7697;51.630;7.484;2022-07-01T12:47:28;2.17;;;1.25;;
15192;SDS011;7697;51.630;7.484;2022-07-01T12:52:32;1.38;;;1.00;;
15192;SDS011;7697;51.630;7.484;2022-07-01T12:57:33;2.30;;;1.23;;
15192;SDS011;7697;51.630;7.484;2022-07-01T13:02:36;2.72;;;1.23;;
15192;SDS011;7697;51.630;7.484;2022-07-01T13:07:38;2.20;;;1.20;;
15192;SDS011;7697;51.630;7.484;2022-07-01T13:12:41;2.22;;;0.93;;
15192;SDS011;7697;51.630;7.484;2022-07-01T13:17:45;2.28;;;1.10;;
15192;SDS011;7697;51.630;7.484;2022-07-01T13:22:48;2.78;;;1.50;;
15192;SDS011;7697;51.630;7.484;2022-07-01T13:27:50;2.38;;;1.17;;
15192;SDS011;7697;51.630;7.484;2022-07-01T13:32:53;1.58;;;1.23;;
15192;SDS011;7697;51.630;7.484;2022-07-01T13:37:55;1.92;;;1.30;;
15192;SDS011;7697;51.630;7.484;2022-07-01T13:42:57;3.00;;;1.23;;
15192;SDS011;7697;51.630;7.484;2022-07-01T13:48:00;1.88;;;1.05;;
15192;SDS011;7697;51.630;7.484;2022-07-01T13:53:02;1.65;;;1.42;;
15192;SDS011;7697;51.630;7.484;2022-07-01T13:58:03;1.00;;;0.90;;
15192;SDS011;7697;51.630;7.484;2022-07-01T14:03:07;2.65;;;1.33;;
15192;SDS011;7697;51.630;7.484;2022-07-01T14:08:10;1.83;;;1.20;;
15192;SDS011;7697;51.630;7.484;2022-07-01T14:13:12;2.10;;;1.40;;
15192;SDS011;7697;51.630;7.484;2022-07-01T14:18:15;2.55;;;1.20;;
15192;SDS011;7697;51.630;7.484;2022-07-01T14:23:17;2.03;;;1.40;;
15192;SDS011;7697;51.630;7.484;2022-07-01T14:28:19;1.70;;;1.20;;
15192;SDS011;7697;51.630;7.484;2022-07-01T14:33:22;2.63;;;1.20;;
15192;SDS011;7697;51.630;7.484;2022-07-01T14:38:24;2.28;;;1.20;;
15192;SDS011;7697;51.630;7.484;2022-07-01T14:43:25;2.60;;;1.10;;
15192;SDS011;7697;51.630;7.484;2022-07-01T14:48:31;2.47;;;1.20;;
15192;SDS011;7697;51.630;7.484;2022-07-01T14:53:35;2.25;;;1.20;;
15192;SDS011;7697;51.630;7.484;2022-07-01T14:58:39;1.45;;;1.17;;
15192;SDS011;7697;51.630;7.484;2022-07-01T15:03:44;2.25;;;0.90;;
15192;SDS011;7697;51.630;7.484;2022-07-01T15:08:46;1.38;;;1.10;;
15192;SDS011;7697;51.630;7.484;2022-07-01T15:13:47;3.30;;;1.20;;
15192;SDS011;7697;51.630;7.484;2022-07-01T15:18:51;2.22;;;1.15;;
15192;SDS011;7697;51.630;7.484;2022-07-01T15:23:53;0.90;;;0.82;;
15192;SDS011;7697;51.630;7.484;2022-07-01T15:28:54;2.53;;;1.02;;
15192;SDS011;7697;51.630;7.484;2022-07-01T15:33:58;1.38;;;1.10;;
15192;SDS011;7697;51.630;7.484;2022-07-01T15:38:59;1.20;;;0.80;;
15192;SDS011;7697;51.630;7.484;2022-07-01T15:44:01;1.85;;;1.00;;
15192;SDS011;7697;51.630;7.484;2022-07-01T15:49:06;2.65;;;0.90;;
15192;SDS011;7697;51.630;7.484;2022-07-01T15:54:08;1.30;;;1.05;;
15192;SDS011;7697;51.630;7.484;2022-07-01T15:59:10;2.13;;;1.10;;
15192;SDS011;7697;51.630;7.484;2022-07-01T16:04:14;1.50;;;1.08;;
15192;SDS011;7697;51.630;7.484;2022-07-01T16:09:16;2.85;;;1.15;;
15192;SDS011;7697;51.630;7.484;2022-07-01T16:14:19;1.33;;;1.10;;
15192;SDS011;7697;51.630;7.484;2022-07-01T16:19:23;1.58;;;1.10;;
15192;SDS011;7697;51.630;7.484;2022-07-01T16:24:25;2.47;;;1.50;;
15192;SDS011;7697;51.630;7.484;2022-07-01T16:29:27;1.40;;;1.02;;
15192;SDS011;7697;51.630;7.484;2022-07-01T16:34:32;2.22;;;1.08;;
15192;SDS011;7697;51.630;7.484;2022-07-01T16:39:33;1.65;;;1.23;;
15192;SDS011;7697;51.630;7.484;2022-07-01T16:44:38;1.38;;;1.08;;
15192;SDS011;7697;51.630;7.484;2022-07-01T16:49:47;1.13;;;1.02;;
15192;SDS011;7697;51.630;7.484;2022-07-01T16:54:53;2.20;;;1.27;;
15192;SDS011;7697;51.630;7.484;2022-07-01T16:59:59;1.20;;;0.90;;
15192;SDS011;7697;51.630;7.484;2022-07-01T17:05:05;1.77;;;1.10;;
15192;SDS011;7697;51.630;7.484;2022-07-01T17:10:09;1.40;;;1.08;;
15192;SDS011;7697;51.630;7.484;2022-07-01T17:15:12;2.03;;;1.00;;
15192;SDS011;7697;51.630;7.484;2022-07-01T17:20:16;2.40;;;1.05;;
15192;SDS011;7697;51.630;7.484;2022-07-01T17:25:22;2.00;;;1.38;;
15192;SDS011;7697;51.630;7.484;2022-07-01T17:30:30;1.90;;;1.30;;
15192;SDS011;7697;51.630;7.484;2022-07-01T17:35:36;1.85;;;1.20;;
15192;SDS011;7697;51.630;7.484;2022-07-01T17:40:42;1.67;;;1.30;;
15192;SDS011;7697;51.630;7.484;2022-07-01T17:45:44;1.83;;;1.30;;
15192;SDS011;7697;51.630;7.484;2022-07-01T17:50:50;1.77;;;1.20;;
15192;SDS011;7697;51.630;7.484;2022-07-01T17:55:54;3.22;;;1.50;;
15192;SDS011;7697;51.630;7.484;2022-07-01T18:00:57;1.60;;;1.33;;
15192;SDS011;7697;51.630;7.484;2022-07-01T18:06:01;2.17;;;1.40;;
15192;SDS011;7697;51.630;7.484;2022-07-01T18:11:04;1.80;;;1.38;;
15192;SDS011;7697;51.630;7.484;2022-07-01T18:16:09;3.22;;;1.45;;
15192;SDS011;7697;51.630;7.484;2022-07-01T18:21:15;2.70;;;1.30;;
15192;SDS011;7697;51.630;7.484;2022-07-01T18:26:21;2.25;;;1.30;;
15192;SDS011;7697;51.630;7.484;2022-07-01T18:31:27;1.92;;;1.23;;
15192;SDS011;7697;51.630;7.484;2022-07-01T18:36:36;1.95;;;1.35;;
15192;SDS011;7697;51.630;7.484;2022-07-01T18:41:41;1.00;;;0.90;;
15192;SDS011;7697;51.630;7.484;2022-07-01T18:46:43;1.05;;;0.93;;
15192;SDS011;7697;51.630;7.484;2022-07-01T18:51:46;2.25;;;1.00;;
15192;SDS011;7697;51.630;7.484;2022-07-01T18:56:48;1.30;;;1.10;;
15192;SDS011;7697;51.630;7.484;2022-07-01T19:01:49;1.58;;;0.95;;
15192;SDS011;7697;51.630;7.484;2022-07-01T19:06:53;1.63;;;1.30;;
15192;SDS011;7697;51.630;7.484;2022-07-01T19:11:54;1.77;;;1.20;;
15192;SDS011;7697;51.630;7.484;2022-07-01T19:16:56;1.10;;;1.00;;
15192;SDS011;7697;51.630;7.484;2022-07-01T19:21:59;2.10;;;1.25;;
15192;SDS011;7697;51.630;7.484;2022-07-01T19:27:01;1.30;;;1.08;;
15192;SDS011;7697;51.630;7.484;2022-07-01T19:32:04;2.08;;;1.50;;
15192;SDS011;7697;51.630;7.484;2022-07-01T19:37:07;1.15;;;1.05;;
15192;SDS011;7697;51.630;7.484;2022-07-01T19:42:13;3.58;;;1.40;;
15192;SDS011;7697;51.630;7.484;2022-07-01T19:47:15;3.00;;;1.42;;
15192;SDS011;7697;51.630;7.484;2022-07-01T19:52:18;1.15;;;1.05;;
15192;SDS011;7697;51.630;7.484;2022-07-01T19:57:20;1.55;;;1.13;;
15192;SDS011;7697;51.630;7.484;2022-07-01T20:02:22;1.23;;;1.13;;
15192;SDS011;7697;51.630;7.484;2022-07-01T20:07:25;2.85;;;1.38;;
15192;SDS011;7697;51.630;7.484;2022-07-01T20:12:26;2.80;;;1.40;;
15192;SDS011;7697;51.630;7.484;2022-07-01T20:17:28;1.40;;;1.30;;
15192;SDS011;7697;51.630;7.484;2022-07-01T20:22:31;2.70;;;1.40;;
15192;SDS011;7697;51.630;7.484;2022-07-01T20:27:33;1.20;;;1.10;;
15192;SDS011;7697;51.630;7.484;2022-07-01T20:32:35;2.55;;;1.45;;
15192;SDS011;7697;51.630;7.484;2022-07-01T20:37:38;1.60;;;1.40;;
15192;SDS011;7697;51.630;7.484;2022-07-01T20:42:40;1.55;;;1.33;;
15192;SDS011;7697;51.630;7.484;2022-07-01T20:47:42;2.10;;;1.42;;
15192;SDS011;7697;51.630;7.484;2022-07-01T20:52:45;1.30;;;1.10;;
15192;SDS011;7697;51.630;7.484;2022-07-01T20:57:47;2.00;;;1.10;;
15192;SDS011;7697;51.630;7.484;2022-07-01T21:02:49;1.80;;;1.20;;
15192;SDS011;7697;51.630;7.484;2022-07-01T21:07:52;1.50;;;1.30;;
15192;SDS011;7697;51.630;7.484;2022-07-01T21:12:53;2.17;;;1.60;;
15192;SDS011;7697;51.630;7.484;2022-07-01T21:17:55;2.15;;;1.40;;
15192;SDS011;7697;51.630;7.484;2022-07-01T21:22:59;2.17;;;1.20;;
15192;SDS011;7697;51.630;7.484;2022-07-01T21:28:01;1.23;;;1.13;;
15192;SDS011;7697;51.630;7.484;2022-07-01T21:33:03;1.58;;;1.35;;
15192;SDS011;7697;51.630;7.484;2022-07-01T21:38:06;1.42;;;1.33;;
15192;SDS011;7697;51.630;7.484;2022-07-01T21:43:07;1.48;;;1.10;;
15192;SDS011;7697;51.630;7.484;2022-07-01T21:48:10;2.58;;;1.92;;
15192;SDS011;7697;51.630;7.484;2022-07-01T21:53:15;3.95;;;2.03;;
15192;SDS011;7697;51.630;7.484;2022-07-01T21:58:22;2.45;;;1.70;;
15192;SDS011;7697;51.630;7.484;2022-07-01T22:03:26;2.08;;;1.55;;
15192;SDS011;7697;51.630;7.484;2022-07-01T22:08:31;2.28;;;1.65;;
15192;SDS011;7697;51.630;7.484;2022-07-01T22:13:36;1.70;;;1.55;;
15192;SDS011;7697;51.630;7.484;2022-07-01T22:18:45;1.75;;;1.50;;
15192;SDS011;7697;51.630;7.484;2022-07-01T22:23:50;1.70;;;1.60;;
15192;SDS011;7697;51.630;7.484;2022-07-01T22:28:56;1.50;;;1.30;;
15192;SDS011;7697;51.630;7.484;2022-07-01T22:34:00;1.77;;;1.30;;
15192;SDS011;7697;51.630;7.484;2022-07-01T22:39:04;1.63;;;1.40;;
15192;SDS011;7697;51.630;7.484;2022-07-01T22:44:07;2.28;;;1.50;;
15192;SDS011;7697;51.630;7.484;2022-07-01T22:49:12;3.60;;;1.73;;
15192;SDS011;7697;51.630;7.484;2022-07-01T22:54:24;1.85;;;1.60;;
15192;SDS011;7697;51.630;7.484;2022-07-01T22:59:30;4.18;;;3.13;;
15192;SDS011;7697;51.630;7.484;2022-07-01T23:04:34;4.30;;;2.88;;
15192;SDS011;7697;51.630;7.484;2022-07-01T23:09:44;5.78;;;2.92;;
15192;SDS011;7697;51.630;7.484;2022-07-01T23:14:54;4.32;;;2.95;;
15192;SDS011;7697;51.630;7.484;2022-07-01T23:20:19;2.67;;;1.92;;
15192;SDS011;7697;51.630;7.484;2022-07-01T23:25:23;1.77;;;1.50;;
15192;SDS011;7697;51.630;7.484;2022-07-01T23:30:26;1.98;;;1.70;;
15192;SDS011;7697;51.630;7.484;2022-07-01T23:35:28;3.10;;;1.50;;
15192;SDS011;7697;51.630;7.484;2022-07-01T23:40:32;1.58;;;1.48;;
15192;SDS011;7697;51.630;7.484;2022-07-01T23:45:34;2.28;;;1.70;;
15192;SDS011;7697;51.630;7.484;2022-07-01T23:50:38;2.08;;;1.67;;
15192;SDS011;7697;51.630;7.484;2022-07-01T23:55:41;1.88;;;1.40;;
